Central Nyack, New York
Current Conditions -  °F | °C
As of 12:56 PM on Tuesday 21 Oct 2014 (Local Time) from KHPN Reporting Station
Broken Clouds Broken Clouds  
Wind Chill: 63°   Ceiling: 7000
Heat Index: 63°   Visibility: 10mi
Dew Point: 49°   Wind: 9mph
Humidity: 60%   Direction: 130°SE
Pressure: 29.86"   Gusts: 17mph
Location:  41.0938°N, 73.9254°W
Report Text: KHPN 211656Z 13008G15KT 10SM FEW025 SCT047 BKN070 17/09 A2986 RMK AO2 SLP111 T01720094
Loading
Personal Weather Stations






























Interactive Weather Map
Tropical Storm Tracking
New forecast layout! Learn more

10-Day Weather Forecast

Advertisements
Track Severe Weather on mobile